Time;durP1;ratioP1;P1;durP2;ratioP2;P2;SDS_P1;SDS_P2;PMS_P1;PMS_P2;Temp;Humidity;BMP_temperature;BMP_pressure;BME280_temperature;BME280_humidity;BME280_pressure;Samples;Min_cycle;Max_cycle;Signal;HPM_P1;HPM_P2
2022/03/10 00:02:19;;;;;;;24.00;16.97;;;;;;;1.38;nan;100274.63;4906465;29;20229;-73
2022/03/10 00:04:44;;;;;;;26.63;19.90;;;;;;;1.39;nan;100283.22;4906285;29;20225;-73
2022/03/10 00:07:09;;;;;;;27.30;18.40;;;;;;;1.35;nan;100278.97;4908003;29;20218;-73
2022/03/10 00:09:35;;;;;;;27.27;17.13;;;;;;;1.33;nan;100281.59;4907389;29;20226;-73
2022/03/10 00:12:01;;;;;;;33.03;19.80;;;;;;;1.33;nan;100279.84;4906364;29;20246;-73
2022/03/10 00:14:28;;;;;;;29.45;17.63;;;;;;;1.36;nan;100276.38;4908059;29;20258;-73
2022/03/10 00:16:53;;;;;;;26.20;15.40;;;;;;;1.34;nan;100270.34;4906283;29;20206;-74
2022/03/10 00:19:19;;;;;;;29.87;16.60;;;;;;;1.30;nan;100276.47;4906229;29;20474;-74
2022/03/10 00:21:46;;;;;;;24.93;16.00;;;;;;;1.29;nan;100279.91;4906693;29;20233;-74
2022/03/10 00:24:12;;;;;;;22.40;15.98;;;;;;;1.23;nan;100280.00;4904562;29;20584;-74
2022/03/10 00:26:38;;;;;;;26.60;16.67;;;;;;;1.17;nan;100285.28;4907216;29;20603;-74
2022/03/10 00:29:04;;;;;;;37.53;16.20;;;;;;;1.13;nan;100288.78;4904435;29;20221;-73
2022/03/10 00:31:30;;;;;;;26.20;14.57;;;;;;;1.13;nan;100283.59;4906409;29;20517;-74
2022/03/10 00:33:55;;;;;;;20.00;15.00;;;;;;;1.13;nan;100287.03;4906724;29;20860;-74
2022/03/10 00:36:21;;;;;;;20.20;12.70;;;;;;;1.12;nan;100287.06;4904080;29;20233;-72
2022/03/10 00:38:46;;;;;;;20.17;12.80;;;;;;;1.09;nan;100285.38;4891589;29;20252;-72
2022/03/10 00:41:12;;;;;;;24.23;14.27;;;;;;;1.09;nan;100285.38;4907687;29;20230;-72
2022/03/10 00:43:37;;;;;;;23.30;14.93;;;;;;;1.06;nan;100281.09;4906873;29;20210;-71
2022/03/10 00:46:02;;;;;;;23.73;13.90;;;;;;;1.00;nan;100288.97;4906498;29;20218;-74
2022/03/10 00:48:28;;;;;;;25.50;15.67;;;;;;;0.95;nan;100288.16;4908455;29;20281;-75
2022/03/10 00:50:54;;;;;;;24.63;14.80;;;;;;;0.96;nan;100291.59;4907920;29;20255;-72
2022/03/10 00:53:19;;;;;;;18.30;14.67;;;;;;;0.97;nan;100283.81;4907122;29;20207;-72
2022/03/10 00:55:46;;;;;;;22.67;14.38;;;;;;;0.95;nan;100283.00;4906908;29;20206;-72
2022/03/10 00:58:11;;;;;;;23.00;15.33;;;;;;;0.93;nan;100284.72;4907124;29;20229;-75
2022/03/10 01:00:37;;;;;;;26.47;18.57;;;;;;;0.97;nan;100285.53;4905958;29;20589;-72
2022/03/10 01:03:05;;;;;;;25.80;18.73;;;;;;;1.00;nan;100283.78;4906014;29;20490;-75
2022/03/10 01:05:31;;;;;;;25.02;14.98;;;;;;;0.97;nan;100277.78;4905068;29;20735;-74
2022/03/10 01:07:57;;;;;;;25.00;15.75;;;;;;;0.92;nan;100270.09;4894780;29;20210;-72
2022/03/10 01:10:23;;;;;;;25.43;16.77;;;;;;;0.90;nan;100281.34;4906463;29;20628;-72
2022/03/10 01:12:49;;;;;;;17.80;13.10;;;;;;;0.88;nan;100283.94;4905430;29;20206;-75
2022/03/10 01:15:17;;;;;;;24.37;15.30;;;;;;;0.86;nan;100281.38;4907083;29;20224;-72
2022/03/10 01:17:43;;;;;;;19.55;14.15;;;;;;;0.79;nan;100281.47;4906948;29;20209;-71
2022/03/10 01:20:09;;;;;;;25.00;15.18;;;;;;;0.71;nan;100278.13;4906778;29;20201;-72
2022/03/10 01:22:35;;;;;;;26.07;13.20;;;;;;;0.68;nan;100281.63;4896479;29;20214;-75
2022/03/10 01:25:01;;;;;;;22.40;13.55;;;;;;;0.66;nan;100281.63;4906907;29;20505;-72
2022/03/10 01:27:26;;;;;;;20.37;15.20;;;;;;;0.67;nan;100279.88;4906666;29;20241;-72
2022/03/10 01:29:52;;;;;;;22.77;15.93;;;;;;;0.67;nan;100279.88;4905161;29;20487;-73
2022/03/10 01:32:17;;;;;;;27.33;18.95;;;;;;;0.68;nan;100281.63;4903947;29;20490;-74
2022/03/10 01:34:43;;;;;;;24.70;15.13;;;;;;;0.66;nan;100281.63;4906029;29;20806;-72
2022/03/10 01:37:08;;;;;;;21.97;13.90;;;;;;;0.66;nan;100284.22;4907169;29;20215;-72
2022/03/10 01:39:34;;;;;;;24.70;15.17;;;;;;;0.65;nan;100279.94;4907032;29;20246;-72
2022/03/10 01:42:00;;;;;;;24.40;14.73;;;;;;;0.65;nan;100279.06;4905687;29;20226;-72
2022/03/10 01:44:26;;;;;;;25.30;15.55;;;;;;;0.64;nan;100274.75;4906156;29;20310;-72
2022/03/10 01:46:51;;;;;;;24.67;15.23;;;;;;;0.63;nan;100281.66;4907038;29;20321;-72
2022/03/10 01:49:17;;;;;;;24.77;15.67;;;;;;;0.57;nan;100278.31;4906370;29;20287;-71
2022/03/10 01:51:43;;;;;;;26.47;16.20;;;;;;;0.54;nan;100281.78;4908491;29;20213;-71
2022/03/10 01:54:08;;;;;;;25.67;15.77;;;;;;;0.51;nan;100279.22;4909311;29;20237;-72
2022/03/10 01:56:35;;;;;;;24.43;15.30;;;;;;;0.48;nan;100274.09;4910127;29;20506;-72
2022/03/10 01:59:03;;;;;;;27.90;18.17;;;;;;;0.50;nan;100271.50;4908585;29;21823;-74
2022/03/10 02:01:29;;;;;;;27.30;17.40;;;;;;;0.46;nan;100275.84;4909219;29;20482;-72
2022/03/10 02:03:57;;;;;;;25.65;14.90;;;;;;;0.45;nan;100284.47;4907987;29;20590;-74
2022/03/10 02:06:22;;;;;;;29.65;17.52;;;;;;;0.43;nan;100283.63;4896286;29;20207;-72
2022/03/10 02:11:32;;;;;;;26.40;16.15;;;;;;;0.39;nan;100279.38;4909058;29;20646;-71
2022/03/10 02:13:57;;;;;;;23.37;13.90;;;;;;;0.39;nan;100279.38;4908043;29;20218;-72
2022/03/10 02:19:07;;;;;;;23.40;16.02;;;;;;;0.35;nan;100281.16;4908671;29;20238;-72
2022/03/10 02:21:33;;;;;;;19.33;13.63;;;;;;;0.29;nan;100278.59;4909238;29;20237;-72
2022/03/10 02:23:58;;;;;;;22.47;15.80;;;;;;;0.22;nan;100274.41;4909463;29;20210;-74
2022/03/10 02:26:24;;;;;;;21.77;13.70;;;;;;;0.17;nan;100274.44;4909851;29;20473;-75
2022/03/10 02:28:49;;;;;;;23.33;14.73;;;;;;;0.15;nan;100270.16;4908293;29;20241;-71
2022/03/10 02:31:15;;;;;;;26.87;16.10;;;;;;;0.16;nan;100274.44;4908806;29;20486;-74
2022/03/10 02:33:41;;;;;;;17.25;13.05;;;;;;;0.15;nan;100270.16;4906363;29;22648;-74
2022/03/10 02:36:07;;;;;;;25.83;14.80;;;;;;;0.15;nan;100268.44;4908586;29;20214;-74
2022/03/10 02:38:32;;;;;;;22.60;14.77;;;;;;;0.18;nan;100268.38;4908338;29;20253;-71
2022/03/10 02:40:58;;;;;;;23.57;14.50;;;;;;;0.19;nan;100272.69;4909238;29;20358;-72
2022/03/10 02:43:24;;;;;;;18.90;13.73;;;;;;;0.19;nan;100271.84;4909235;29;20752;-72
2022/03/10 02:45:50;;;;;;;23.27;15.10;;;;;;;0.16;nan;100265.00;4908159;29;20230;-75
2022/03/10 02:48:17;;;;;;;23.40;13.32;;;;;;;0.09;nan;100265.06;4909437;29;20494;-72
2022/03/10 02:50:43;;;;;;;18.60;12.65;;;;;;;0.01;nan;100266.88;4908357;29;20230;-71
2022/03/10 02:53:10;;;;;;;23.73;15.20;;;;;;;-0.02;nan;100272.91;4908602;29;20572;-71
2022/03/10 02:55:36;;;;;;;21.90;12.35;;;;;;;-0.02;nan;100260.00;4908047;29;20229;-72
2022/03/10 02:58:02;;;;;;;24.40;14.70;;;;;;;-0.01;nan;100264.28;4907468;29;20213;-71
2022/03/10 03:00:28;;;;;;;23.55;13.43;;;;;;;-0.01;nan;100266.88;4907945;29;20474;-72
2022/03/10 03:02:54;;;;;;;25.20;16.53;;;;;;;0.01;nan;100259.13;4907079;29;20507;-72
2022/03/10 03:05:19;;;;;;;24.40;15.70;;;;;;;-0.01;nan;100267.72;4909441;29;20474;-74
2022/03/10 03:07:45;;;;;;;18.27;13.20;;;;;;;-0.03;nan;100261.75;4907758;29;20267;-71
2022/03/10 03:10:12;;;;;;;20.00;12.48;;;;;;;-0.05;nan;100265.22;4907803;29;20210;-74
2022/03/10 03:12:51;;;;;;;22.95;14.70;;;;;;;-0.11;nan;100262.66;4907666;29;20213;-72
2022/03/10 03:15:17;;;;;;;20.85;12.30;;;;;;;-0.19;nan;100274.78;4907285;29;20742;-71
2022/03/10 03:17:43;;;;;;;16.75;11.05;;;;;;;-0.27;nan;100274.84;4907485;29;20206;-72
2022/03/10 03:20:14;;;;;;;18.97;13.07;;;;;;;-0.33;nan;100268.00;4907900;29;20330;-72
2022/03/10 03:22:40;;;;;;;21.48;13.02;;;;;;;-0.38;nan;100279.25;4908045;29;20214;-71
2022/03/10 03:25:06;;;;;;;19.20;13.07;;;;;;;-0.48;nan;100268.16;4909150;29;20214;-72
2022/03/10 03:27:32;;;;;;;24.23;13.80;;;;;;;-0.58;nan;100269.09;4908985;29;20229;-72
2022/03/10 03:29:57;;;;;;;24.60;14.85;;;;;;;-0.67;nan;100267.44;4906274;29;20519;-75
2022/03/10 03:32:22;;;;;;;24.83;16.27;;;;;;;-0.68;nan;100276.88;4906758;29;20498;-72
2022/03/10 03:34:48;;;;;;;20.43;14.10;;;;;;;-0.71;nan;100274.34;4908838;29;20260;-75
2022/03/10 03:37:13;;;;;;;20.53;13.50;;;;;;;-0.71;nan;100276.06;4909065;29;20218;-73
2022/03/10 03:39:38;;;;;;;23.47;13.50;;;;;;;-0.75;nan;100269.22;4907595;29;20626;-73
2022/03/10 03:42:04;;;;;;;22.03;13.90;;;;;;;-0.77;nan;100271.81;4907517;29;20249;-72
2022/03/10 03:44:29;;;;;;;20.20;13.50;;;;;;;-0.74;nan;100281.25;4904519;29;20305;-74
2022/03/10 03:46:55;;;;;;;21.27;13.43;;;;;;;-0.68;nan;100286.34;4908682;29;20800;-75
2022/03/10 03:49:20;;;;;;;21.30;13.20;;;;;;;-0.63;nan;100283.75;4908950;29;20226;-75
2022/03/10 03:51:45;;;;;;;26.03;14.00;;;;;;;-0.60;nan;100284.56;4906983;29;20430;-76
2022/03/10 03:54:11;;;;;;;24.23;15.83;;;;;;;-0.57;nan;100288.84;4908350;29;20236;-73
2022/03/10 03:56:37;;;;;;;25.97;14.57;;;;;;;-0.53;nan;100293.16;4907351;29;20221;-75
2022/03/10 03:59:04;;;;;;;19.95;13.25;;;;;;;-0.55;nan;100292.28;4907268;29;20668;-73
2022/03/10 04:01:29;;;;;;;25.40;16.38;;;;;;;-0.55;nan;100295.72;4907381;29;20998;-74
2022/03/10 04:03:55;;;;;;;24.63;14.23;;;;;;;-0.55;nan;100305.19;4906920;29;20221;-74
2022/03/10 04:06:21;;;;;;;18.97;12.63;;;;;;;-0.59;nan;100301.78;4906872;29;20210;-75
2022/03/10 04:08:46;;;;;;;21.98;12.30;;;;;;;-0.64;nan;100300.13;4907133;29;20226;-75
2022/03/10 04:11:12;;;;;;;25.23;11.70;;;;;;;-0.75;nan;100310.50;4907918;29;20198;-75
2022/03/10 04:13:37;;;;;;;21.67;12.50;;;;;;;-0.89;nan;100313.16;4904547;29;20675;-74
2022/03/10 04:16:03;;;;;;;19.50;12.07;;;;;;;-0.95;nan;100319.19;4907236;29;20211;-74
2022/03/10 04:18:29;;;;;;;16.07;11.20;;;;;;;-1.00;nan;100314.91;4908264;29;20237;-75
2022/03/10 04:20:56;;;;;;;24.25;11.88;;;;;;;-1.06;nan;100320.13;4907845;29;20237;-75
2022/03/10 04:23:21;;;;;;;19.30;13.25;;;;;;;-1.12;nan;100327.00;4907341;29;20210;-75
2022/03/10 04:25:47;;;;;;;22.43;13.83;;;;;;;-1.13;nan;100322.72;4905841;29;20285;-75
2022/03/10 04:28:12;;;;;;;16.77;11.20;;;;;;;-1.10;nan;100329.59;4906153;29;20229;-75
2022/03/10 04:30:38;;;;;;;19.90;13.07;;;;;;;-1.07;nan;100333.88;4903542;29;20210;-75
2022/03/10 04:33:05;;;;;;;26.80;16.20;;;;;;;-1.05;nan;100330.44;4906514;29;20602;-75
2022/03/10 04:35:30;;;;;;;22.85;11.98;;;;;;;-1.04;nan;100333.84;4899429;29;20297;-75
2022/03/10 04:37:56;;;;;;;26.20;13.70;;;;;;;-1.04;nan;100329.56;4896858;29;20245;-75
2022/03/10 04:40:22;;;;;;;18.07;12.00;;;;;;;-1.07;nan;100336.47;4901111;29;20235;-75
2022/03/10 04:42:48;;;;;;;23.43;14.70;;;;;;;-1.15;nan;100334.75;4899228;29;20214;-75
2022/03/10 04:45:14;;;;;;;20.45;13.02;;;;;;;-1.18;nan;100331.34;4898311;29;20458;-75
2022/03/10 04:47:41;;;;;;;26.00;12.95;;;;;;;-1.22;nan;100333.06;4902459;29;20206;-75
2022/03/10 04:50:08;;;;;;;22.83;15.95;;;;;;;-1.26;nan;100344.25;4907066;29;20715;-75
2022/03/10 04:52:34;;;;;;;22.70;13.82;;;;;;;-1.31;nan;100338.25;4906075;29;20217;-75
2022/03/10 04:55:01;;;;;;;21.65;13.95;;;;;;;-1.35;nan;100339.13;4906142;29;20309;-75
2022/03/10 04:57:26;;;;;;;44.85;15.25;;;;;;;-1.37;nan;100341.72;4907090;29;20305;-75
2022/03/10 04:59:52;;;;;;;20.93;14.67;;;;;;;-1.35;nan;100337.44;4906709;29;20494;-75
2022/03/10 05:02:17;;;;;;;22.87;14.63;;;;;;;-1.34;nan;100343.44;4906090;29;20262;-75
2022/03/10 05:04:43;;;;;;;23.10;14.23;;;;;;;-1.35;nan;100336.53;4906255;29;20218;-75
2022/03/10 05:07:08;;;;;;;27.13;15.30;;;;;;;-1.34;nan;100336.56;4907544;29;20190;-75
2022/03/10 05:09:34;;;;;;;16.43;12.30;;;;;;;-1.34;nan;100340.84;4906999;29;20729;-75
2022/03/10 05:11:59;;;;;;;20.17;12.47;;;;;;;-1.32;nan;100333.97;4906306;29;20687;-75
2022/03/10 05:14:25;;;;;;;27.93;12.70;;;;;;;-1.31;nan;100330.53;4907084;29;20254;-75
2022/03/10 05:16:51;;;;;;;22.37;12.50;;;;;;;-1.31;nan;100333.09;4906887;29;20206;-75
2022/03/10 05:19:17;;;;;;;18.27;12.87;;;;;;;-1.27;nan;100319.38;4907415;29;20233;-75
2022/03/10 05:21:43;;;;;;;24.85;14.45;;;;;;;-1.24;nan;100323.63;4906820;29;20495;-75
2022/03/10 05:24:09;;;;;;;17.73;12.07;;;;;;;-1.22;nan;100324.47;4907445;29;20293;-75
2022/03/10 05:26:34;;;;;;;22.77;15.48;;;;;;;-1.22;nan;100321.91;4908850;29;20386;-75
2022/03/10 05:29:00;;;;;;;19.87;12.67;;;;;;;-1.27;nan;100321.94;4909922;29;20806;-75
2022/03/10 05:31:27;;;;;;;27.08;15.30;;;;;;;-1.28;nan;100327.09;4910146;29;20490;-75
2022/03/10 05:33:53;;;;;;;20.88;12.95;;;;;;;-1.32;nan;100323.66;4909404;29;20664;-75
2022/03/10 05:36:18;;;;;;;22.80;12.43;;;;;;;-1.38;nan;100324.56;4909669;29;20205;-75
2022/03/10 05:38:43;;;;;;;21.07;12.97;;;;;;;-1.38;nan;100323.66;4910963;29;20370;-75
2022/03/10 05:41:09;;;;;;;18.67;12.70;;;;;;;-1.35;nan;100324.53;4910552;29;20299;-75
2022/03/10 05:43:35;;;;;;;27.77;13.90;;;;;;;-1.32;nan;100318.53;4910488;29;20663;-75
2022/03/10 05:46:00;;;;;;;20.93;13.00;;;;;;;-1.30;nan;100315.91;4910773;29;20614;-75
2022/03/10 05:48:26;;;;;;;23.60;13.80;;;;;;;-1.29;nan;100323.66;4911709;29;20486;-75
2022/03/10 05:50:51;;;;;;;15.50;12.47;;;;;;;-1.25;nan;100319.34;4913171;29;20265;-75
2022/03/10 05:53:17;;;;;;;19.80;12.80;;;;;;;-1.24;nan;100321.03;4926331;29;20214;-75
2022/03/10 05:55:42;;;;;;;19.43;13.27;;;;;;;-1.26;nan;100321.06;4912382;29;20218;-75
2022/03/10 05:58:08;;;;;;;32.87;14.27;;;;;;;-1.34;nan;100323.66;4909567;29;20234;-75
2022/03/10 06:00:33;;;;;;;27.23;13.97;;;;;;;-1.37;nan;100315.09;4909238;29;20233;-75
2022/03/10 06:02:59;;;;;;;29.33;19.00;;;;;;;-1.34;nan;100323.66;4908208;29;20494;-75
2022/03/10 06:05:24;;;;;;;24.93;14.90;;;;;;;-1.30;nan;100326.22;4910913;29;20217;-75
2022/03/10 06:07:50;;;;;;;21.73;13.57;;;;;;;-1.27;nan;100310.75;4908799;29;20460;-75
2022/03/10 06:10:15;;;;;;;26.63;13.13;;;;;;;-1.24;nan;100319.34;4910022;29;20230;-75
2022/03/10 06:12:43;;;;;;;21.73;13.80;;;;;;;-1.27;nan;100316.78;4909952;29;20210;-75
2022/03/10 06:15:09;;;;;;;26.55;12.93;;;;;;;-1.36;nan;100322.81;4908287;29;20470;-76
2022/03/10 06:17:35;;;;;;;26.00;15.93;;;;;;;-1.38;nan;100318.53;4908622;29;20214;-75
2022/03/10 06:20:02;;;;;;;23.43;16.00;;;;;;;-1.36;nan;100321.94;4909006;29;20961;-76
2022/03/10 06:22:29;;;;;;;21.95;13.75;;;;;;;-1.41;nan;100324.53;4910129;29;20490;-75
2022/03/10 06:24:56;;;;;;;21.15;14.32;;;;;;;-1.45;nan;100330.59;4909838;29;20202;-75
2022/03/10 06:27:22;;;;;;;25.20;16.48;;;;;;;-1.43;nan;100321.13;4909932;29;20202;-74
2022/03/10 06:29:48;;;;;;;23.13;15.15;;;;;;;-1.36;nan;100324.53;4907978;29;20580;-74
2022/03/10 06:32:16;;;;;;;22.17;14.03;;;;;;;-1.30;nan;100329.66;4897252;29;20221;-75
2022/03/10 06:34:41;;;;;;;19.58;13.30;;;;;;;-1.25;nan;100329.66;4908120;29;20565;-75
2022/03/10 06:37:08;;;;;;;19.23;12.47;;;;;;;-1.28;nan;100329.66;4910039;29;20225;-75
2022/03/10 06:39:34;;;;;;;27.67;14.82;;;;;;;-1.28;nan;100329.66;4907778;29;20297;-75
2022/03/10 06:42:01;;;;;;;17.05;11.63;;;;;;;-1.24;nan;100337.38;4909190;29;20348;-74
2022/03/10 06:44:26;;;;;;;23.98;14.10;;;;;;;-1.16;nan;100334.75;4907761;29;20661;-75
2022/03/10 06:46:52;;;;;;;23.27;14.90;;;;;;;-1.16;nan;100335.63;4909483;29;20321;-75
2022/03/10 06:49:18;;;;;;;17.67;12.57;;;;;;;-1.23;nan;100339.09;4908116;29;20230;-75
2022/03/10 06:51:43;;;;;;;23.53;14.60;;;;;;;-1.29;nan;100333.13;4908049;29;20202;-76
2022/03/10 06:54:09;;;;;;;25.60;14.30;;;;;;;-1.34;nan;100336.56;4910597;29;20474;-75
2022/03/10 06:56:34;;;;;;;29.67;16.00;;;;;;;-1.32;nan;100333.97;4910844;29;20202;-75
2022/03/10 06:59:00;;;;;;;22.47;12.90;;;;;;;-1.26;nan;100333.94;4907629;29;20650;-74
2022/03/10 07:01:25;;;;;;;28.08;15.93;;;;;;;-1.15;nan;100332.19;4903439;29;20530;-74
2022/03/10 07:03:51;;;;;;;23.37;15.27;;;;;;;-1.03;nan;100331.25;4904587;29;20214;-74
2022/03/10 07:06:17;;;;;;;19.87;13.07;;;;;;;-0.91;nan;100331.22;4903266;29;20253;-74
2022/03/10 07:08:43;;;;;;;20.58;13.90;;;;;;;-0.77;nan;100328.56;4908027;29;20468;-75
2022/03/10 07:11:08;;;;;;;27.10;14.33;;;;;;;-0.62;nan;100331.91;4904977;29;20225;-75
2022/03/10 07:13:35;;;;;;;24.40;15.60;;;;;;;-0.48;nan;100335.25;4902560;29;20213;-74
2022/03/10 07:16:01;;;;;;;23.50;14.65;;;;;;;-0.35;nan;100334.31;4907899;29;20221;-74
2022/03/10 07:18:26;;;;;;;23.33;14.43;;;;;;;-0.25;nan;100338.50;4906621;29;20233;-74
2022/03/10 07:20:52;;;;;;;22.20;14.30;;;;;;;-0.13;nan;100337.56;4908270;29;20226;-74
2022/03/10 07:23:17;;;;;;;27.07;16.53;;;;;;;-0.02;nan;100340.06;4907596;29;20266;-74
2022/03/10 07:25:43;;;;;;;26.17;14.50;;;;;;;0.09;nan;100339.97;4908187;29;20210;-74
2022/03/10 07:28:09;;;;;;;23.23;14.30;;;;;;;0.17;nan;100343.34;4907995;29;20316;-75
2022/03/10 07:30:35;;;;;;;22.70;16.17;;;;;;;0.27;nan;100336.34;4908174;29;20485;-74
2022/03/10 07:33:00;;;;;;;28.77;18.42;;;;;;;0.41;nan;100345.69;4905920;29;20508;-74
2022/03/10 07:35:26;;;;;;;29.63;15.90;;;;;;;0.56;nan;100346.38;4908348;29;20206;-74
2022/03/10 07:37:53;;;;;;;22.77;13.80;;;;;;;0.70;nan;100352.25;4908697;29;20260;-75
2022/03/10 07:40:20;;;;;;;20.05;12.23;;;;;;;0.83;nan;100350.38;4905312;29;20217;-74
2022/03/10 07:42:46;;;;;;;27.38;14.93;;;;;;;0.93;nan;100344.22;4907428;29;20202;-74
2022/03/10 07:45:12;;;;;;;24.85;13.27;;;;;;;1.00;nan;100356.22;4902340;29;20633;-74
2022/03/10 07:47:37;;;;;;;19.67;13.87;;;;;;;1.08;nan;100356.97;4890935;29;20225;-74
2022/03/10 07:50:04;;;;;;;28.00;13.60;;;;;;;1.20;nan;100352.50;4901179;29;20273;-74
2022/03/10 07:52:30;;;;;;;34.97;14.80;;;;;;;1.29;nan;100348.03;4901011;29;20210;-74
2022/03/10 07:54:55;;;;;;;20.13;13.00;;;;;;;1.40;nan;100350.47;4892838;29;20228;-74
2022/03/10 07:57:21;;;;;;;23.07;14.03;;;;;;;1.52;nan;100350.31;4891689;29;20608;-74
2022/03/10 07:59:47;;;;;;;24.27;16.97;;;;;;;1.67;nan;100345.78;4898021;29;20508;-74
2022/03/10 08:02:13;;;;;;;30.15;16.70;;;;;;;1.81;nan;100353.34;4900647;29;20801;-74
2022/03/10 08:04:39;;;;;;;34.83;22.33;;;;;;;1.93;nan;100348.81;4897636;29;20215;-74
2022/03/10 08:07:06;;;;;;;26.13;15.57;;;;;;;2.06;nan;100351.22;4898879;29;20476;-74
2022/03/10 08:09:31;;;;;;;26.13;15.05;;;;;;;2.18;nan;100349.25;4902133;29;20261;-74
2022/03/10 08:11:56;;;;;;;21.90;13.33;;;;;;;2.30;nan;100339.56;4900955;29;20566;-74
2022/03/10 08:14:22;;;;;;;22.73;13.40;;;;;;;2.41;nan;100338.47;4902150;29;20675;-74
2022/03/10 08:16:48;;;;;;;24.13;13.55;;;;;;;2.61;nan;100339.84;4901338;29;20222;-74
2022/03/10 08:19:14;;;;;;;24.73;13.60;;;;;;;3.27;nan;100336.75;4900521;29;20277;-74
2022/03/10 08:21:39;;;;;;;19.17;11.93;;;;;;;4.26;nan;100323.97;4902076;29;20226;-74
2022/03/10 08:24:05;;;;;;;24.73;16.00;;;;;;;5.08;nan;100326.88;4902152;29;20282;-75
2022/03/10 08:26:31;;;;;;;21.77;14.40;;;;;;;6.07;nan;100321.22;4901015;29;20739;-74
2022/03/10 08:28:56;;;;;;;23.67;14.90;;;;;;;7.06;nan;100308.97;4902026;29;20287;-74
2022/03/10 08:31:22;;;;;;;20.20;14.03;;;;;;;7.96;nan;100301.91;4902011;29;20198;-74
2022/03/10 08:33:49;;;;;;;23.03;13.87;;;;;;;8.61;nan;100298.25;4901755;29;20213;-74
2022/03/10 08:36:14;;;;;;;22.75;15.05;;;;;;;9.40;nan;100287.63;4901610;29;20472;-74
2022/03/10 08:38:40;;;;;;;19.33;14.63;;;;;;;10.09;nan;100291.25;4900482;29;20652;-74
2022/03/10 08:41:05;;;;;;;21.20;15.40;;;;;;;10.63;nan;100278.84;4900791;29;20719;-74
2022/03/10 08:43:32;;;;;;;22.70;14.60;;;;;;;11.00;nan;100282.13;4904105;29;20221;-74
2022/03/10 08:45:58;;;;;;;20.40;14.32;;;;;;;11.49;nan;100280.22;4900928;29;20229;-74
2022/03/10 08:48:24;;;;;;;21.25;15.57;;;;;;;12.01;nan;100272.91;4892732;29;20243;-74
2022/03/10 08:50:50;;;;;;;24.90;15.85;;;;;;;12.39;nan;100278.53;4901288;29;20262;-74
2022/03/10 08:53:17;;;;;;;26.90;16.10;;;;;;;12.79;nan;100271.66;4901777;29;20253;-74
2022/03/10 08:55:43;;;;;;;23.13;18.90;;;;;;;13.04;nan;100275.41;4902520;29;20210;-74
2022/03/10 08:58:08;;;;;;;23.50;18.37;;;;;;;12.98;nan;100268.72;4901017;29;20232;-74
2022/03/10 09:00:34;;;;;;;31.80;19.60;;;;;;;12.83;nan;100275.81;4905070;29;20217;-74
2022/03/10 09:03:01;;;;;;;29.80;22.00;;;;;;;13.04;nan;100265.72;4905206;29;20522;-74
2022/03/10 09:05:27;;;;;;;28.75;19.83;;;;;;;13.26;nan;100259.09;4903986;29;20659;-75
2022/03/10 09:07:53;;;;;;;25.37;18.63;;;;;;;13.34;nan;100254.19;4906941;29;20285;-74
2022/03/10 09:10:18;;;;;;;24.43;16.70;;;;;;;13.41;nan;100246.69;4902584;29;20237;-74
2022/03/10 09:12:44;;;;;;;25.90;18.63;;;;;;;13.53;nan;100250.31;4906231;29;20252;-74
2022/03/10 09:15:10;;;;;;;24.80;18.13;;;;;;;13.56;nan;100243.06;4905475;29;20658;-74
2022/03/10 09:17:35;;;;;;;26.35;17.98;;;;;;;13.56;nan;100239.59;4908353;29;20222;-74
2022/03/10 09:20:02;;;;;;;28.80;18.27;;;;;;;13.41;nan;100236.97;4907262;29;20264;-74
2022/03/10 09:22:29;;;;;;;26.50;16.92;;;;;;;13.43;nan;100236.91;4905041;29;20238;-74
2022/03/10 09:24:55;;;;;;;25.10;16.83;;;;;;;13.27;nan;100234.41;4901263;29;20210;-74
2022/03/10 09:27:20;;;;;;;27.30;20.60;;;;;;;13.11;nan;100228.41;4904827;29;20559;-74
2022/03/10 09:29:45;;;;;;;26.33;18.70;;;;;;;12.92;nan;100234.00;4905106;29;20218;-74
2022/03/10 09:32:11;;;;;;;27.03;21.60;;;;;;;12.92;nan;100220.81;4885684;29;20530;-74
2022/03/10 09:34:36;;;;;;;22.47;17.73;;;;;;;12.90;nan;100228.81;4903803;29;20210;-74
2022/03/10 09:37:02;;;;;;;27.03;19.83;;;;;;;12.86;nan;100226.47;4881817;29;20359;-74
2022/03/10 09:39:27;;;;;;;24.03;18.63;;;;;;;12.73;nan;100221.13;4904521;29;20287;-74
2022/03/10 09:41:56;;;;;;;29.07;21.50;;;;;;;12.61;nan;100217.47;4904750;29;20587;-74
2022/03/10 09:44:21;;;;;;;29.60;19.25;;;;;;;12.40;nan;100222.28;4903186;29;20214;-74
2022/03/10 09:46:52;;;;;;;27.58;19.67;;;;;;;12.17;nan;100216.59;4903899;29;20206;-74
2022/03/10 09:49:21;;;;;;;30.83;19.23;;;;;;;12.03;nan;100208.69;4905415;29;20226;-74
2022/03/10 09:51:50;;;;;;;28.23;20.67;;;;;;;11.77;nan;100206.75;4906190;29;20648;-74
2022/03/10 09:54:16;;;;;;;33.90;21.08;;;;;;;11.66;nan;100204.75;4904661;29;20394;-74
2022/03/10 09:56:43;;;;;;;32.80;21.38;;;;;;;11.55;nan;100202.72;4904971;29;20210;-74
2022/03/10 09:59:09;;;;;;;31.15;20.00;;;;;;;11.25;nan;100205.34;4902161;29;20213;-74
2022/03/10 10:01:35;;;;;;;29.52;21.42;;;;;;;11.01;nan;100197.06;4903882;29;20486;-74
2022/03/10 10:04:00;;;;;;;30.93;21.17;;;;;;;10.83;nan;100194.53;4903652;29;20225;-74
2022/03/10 10:06:26;;;;;;;35.40;21.63;;;;;;;10.74;nan;100186.28;4905055;29;20214;-74
2022/03/10 10:08:56;;;;;;;29.67;21.00;;;;;;;10.71;nan;100176.81;4904553;29;20261;-74
2022/03/10 10:11:34;;;;;;;32.55;20.88;;;;;;;10.74;nan;100183.66;4903772;29;20195;-74
2022/03/10 10:14:00;;;;;;;39.42;21.92;;;;;;;10.62;nan;100175.53;4904169;29;20206;-74
2022/03/10 10:16:26;;;;;;;30.75;19.50;;;;;;;10.54;nan;100172.47;4902759;29;20222;-74
2022/03/10 10:19:00;;;;;;;27.75;19.75;;;;;;;10.42;nan;100178.38;4894416;29;20321;-74
2022/03/10 10:21:25;;;;;;;27.75;21.50;;;;;;;10.29;nan;100179.97;4905305;29;20536;-74
2022/03/10 10:23:53;;;;;;;24.47;18.20;;;;;;;10.29;nan;100175.59;4903568;29;20211;-74
2022/03/10 10:26:20;;;;;;;31.77;19.00;;;;;;;10.41;nan;100174.06;4905784;29;20201;-74
2022/03/10 10:28:47;;;;;;;31.55;19.17;;;;;;;10.37;nan;100165.53;4904416;29;20233;-74
2022/03/10 10:31:16;;;;;;;31.30;17.88;;;;;;;10.37;nan;100176.03;4902527;29;20502;-74
2022/03/10 10:33:54;;;;;;;27.10;18.17;;;;;;;10.37;nan;100165.53;4904731;29;20553;-74
2022/03/10 10:36:25;;;;;;;29.35;19.05;;;;;;;10.47;nan;100162.38;4903518;29;20198;-74
2022/03/10 10:38:53;;;;;;;29.60;18.52;;;;;;;10.44;nan;100155.53;4903720;29;20314;-74
2022/03/10 10:41:21;;;;;;;25.70;18.00;;;;;;;10.46;nan;100156.28;4903126;29;20226;-73
2022/03/10 10:43:51;;;;;;;30.60;19.73;;;;;;;10.56;nan;100149.59;4905437;29;20206;-73
2022/03/10 10:46:33;;;;;;;29.67;17.80;;;;;;;10.60;nan;100142.41;4903699;29;20222;-73
2022/03/10 10:49:09;;;;;;;30.27;17.67;;;;;;;10.65;nan;100143.00;4907639;29;20317;-73
2022/03/10 10:51:38;;;;;;;29.77;18.98;;;;;;;10.74;nan;100139.84;4907658;29;20214;-74
2022/03/10 10:54:27;;;;;;;30.63;19.70;;;;;;;10.85;nan;100140.13;4913359;29;20231;-73
2022/03/10 10:57:02;;;;;;;27.10;18.58;;;;;;;10.91;nan;100140.69;4902701;29;20698;-73
2022/03/10 10:59:34;;;;;;;32.63;20.13;;;;;;;11.00;nan;100130.50;4903499;29;20527;-74
2022/03/10 11:02:05;;;;;;;31.70;21.90;;;;;;;11.02;nan;100127.81;4891699;29;20490;-74
2022/03/10 11:04:31;;;;;;;32.47;20.90;;;;;;;10.93;nan;100125.69;4903634;29;20454;-73
2022/03/10 11:06:57;;;;;;;31.02;21.13;;;;;;;10.88;nan;100127.72;4902628;29;20218;-74
2022/03/10 11:09:24;;;;;;;26.83;18.50;;;;;;;10.90;nan;100118.81;4902491;29;20230;-73
2022/03/10 11:11:50;;;;;;;29.23;19.08;;;;;;;10.96;nan;100110.56;4905165;29;20210;-73
2022/03/10 11:14:16;;;;;;;32.45;18.88;;;;;;;11.05;nan;100114.47;4896858;29;20413;-73
2022/03/10 11:16:43;;;;;;;27.20;17.00;;;;;;;11.03;nan;100105.81;4893671;29;20698;-74
2022/03/10 11:19:11;;;;;;;28.80;18.83;;;;;;;11.07;nan;100108.19;4903490;29;20234;-73
2022/03/10 11:22:04;;;;;;;28.70;18.98;;;;;;;11.15;nan;100109.50;4902909;29;20317;-73
2022/03/10 11:24:33;;;;;;;24.73;16.40;;;;;;;11.14;nan;100095.53;4904120;29;20852;-73
2022/03/10 11:27:12;;;;;;;28.27;18.00;;;;;;;11.14;nan;100092.91;4900564;29;20226;-73
2022/03/10 11:29:39;;;;;;;31.88;19.35;;;;;;;11.11;nan;100093.06;4903666;29;20242;-73
2022/03/10 11:32:14;;;;;;;29.33;21.02;;;;;;;11.14;nan;100098.16;4903074;29;20491;-73